createdAt,value
2018-08-19T00:02:26.025Z,28.10
2018-08-19T00:05:10.335Z,31.83
2018-08-19T00:07:40.108Z,30.52
2018-08-19T00:10:09.915Z,32.47
2018-08-19T00:12:43.931Z,31.63
2018-08-19T00:15:14.323Z,24.83
2018-08-19T00:17:44.370Z,32.73
2018-08-19T00:20:14.903Z,33.37
2018-08-19T00:22:44.786Z,27.87
2018-08-19T00:25:24.138Z,32.07
2018-08-19T00:27:54.028Z,27.33
2018-08-19T00:30:23.916Z,34.03
2018-08-19T00:32:53.617Z,32.47
2018-08-19T00:35:23.585Z,31.10
2018-08-19T00:37:53.250Z,34.48
2018-08-19T00:40:23.812Z,36.57
2018-08-19T00:42:53.535Z,36.87
2018-08-19T00:45:23.642Z,33.67
2018-08-19T00:47:53.362Z,32.70
2018-08-19T00:50:24.389Z,31.80
2018-08-19T00:52:54.793Z,34.37
2018-08-19T00:55:25.206Z,30.00
2018-08-19T00:58:01.218Z,33.27
2018-08-19T01:00:31.251Z,34.43
2018-08-19T01:03:00.965Z,37.80
2018-08-19T01:05:30.952Z,34.37
2018-08-19T01:08:01.022Z,33.90
2018-08-19T01:10:30.889Z,32.20
2018-08-19T01:13:00.651Z,26.07
2018-08-19T01:15:30.534Z,29.70
2018-08-19T01:18:00.247Z,23.40
2018-08-19T01:20:30.172Z,25.93
2018-08-19T01:22:59.872Z,30.30
2018-08-19T01:25:29.782Z,34.43
2018-08-19T01:27:59.637Z,32.57
2018-08-19T01:30:29.618Z,35.10
2018-08-19T01:32:59.215Z,28.70
2018-08-19T01:35:33.095Z,39.70
2018-08-19T01:38:02.785Z,34.60
2018-08-19T01:40:32.473Z,36.53
2018-08-19T01:43:02.269Z,37.70
2018-08-19T01:45:32.244Z,41.90
2018-08-19T01:48:01.891Z,34.10
2018-08-19T01:50:31.662Z,37.83
2018-08-19T01:53:01.333Z,31.90
2018-08-19T01:55:32.499Z,28.80
2018-08-19T01:58:02.191Z,34.60
2018-08-19T02:00:32.079Z,40.77
2018-08-19T02:03:06.078Z,38.30
2018-08-19T02:05:35.882Z,42.50
2018-08-19T02:08:05.951Z,42.57
2018-08-19T02:10:36.408Z,40.70
2018-08-19T02:13:06.179Z,41.23
2018-08-19T02:15:36.029Z,36.63
2018-08-19T02:18:06.503Z,39.30
2018-08-19T02:20:39.187Z,43.97
2018-08-19T02:23:11.162Z,43.93
2018-08-19T02:25:43.448Z,36.33
2018-08-19T02:28:13.873Z,33.10
2018-08-19T02:31:02.800Z,35.50
2018-08-19T02:33:35.094Z,40.43
2018-08-19T02:36:07.774Z,38.93
2018-08-19T02:38:38.787Z,46.23
2018-08-19T02:41:08.574Z,48.90
2018-08-19T02:43:47.625Z,52.53
2018-08-19T02:46:17.610Z,47.40
2018-08-19T02:48:50.839Z,37.23
2018-08-19T02:51:21.525Z,36.17
2018-08-19T02:53:52.415Z,38.37
2018-08-19T02:56:22.266Z,44.40
2018-08-19T02:58:51.969Z,52.60
2018-08-19T03:01:21.735Z,48.97
2018-08-19T03:03:51.532Z,54.17
2018-08-19T03:06:21.322Z,61.10
2018-08-19T03:08:56.113Z,43.10
2018-08-19T03:11:26.185Z,40.40
2018-08-19T03:13:56.210Z,37.37
2018-08-19T03:16:26.014Z,39.07
2018-08-19T03:18:55.901Z,47.53
2018-08-19T03:21:25.723Z,42.43
2018-08-19T03:23:55.416Z,48.50
2018-08-19T03:26:25.196Z,51.67
2018-08-19T03:28:55.088Z,54.80
2018-08-19T03:31:24.896Z,52.53
2018-08-19T03:33:54.711Z,63.10
2018-08-19T03:36:24.560Z,46.97
2018-08-19T03:38:55.977Z,39.57
2018-08-19T03:41:25.902Z,42.53
2018-08-19T03:43:59.462Z,36.67
2018-08-19T03:46:31.302Z,42.73
2018-08-19T03:49:01.070Z,54.67
2018-08-19T03:51:30.801Z,49.67
2018-08-19T03:54:00.490Z,49.30
2018-08-19T03:56:30.249Z,60.17
2018-08-19T03:59:00.980Z,58.30
2018-08-19T04:01:41.549Z,55.57
2018-08-19T04:04:12.372Z,51.57
2018-08-19T04:06:42.085Z,51.17
2018-08-19T04:09:11.851Z,62.77
2018-08-19T04:11:41.553Z,63.83
2018-08-19T04:14:26.333Z,58.83
2018-08-19T04:16:58.805Z,54.10
2018-08-19T04:19:29.342Z,57.33
2018-08-19T04:22:01.556Z,50.73
2018-08-19T04:24:31.954Z,52.40
2018-08-19T04:27:07.294Z,51.67
2018-08-19T04:29:38.194Z,44.57
2018-08-19T04:32:17.055Z,52.40
2018-08-19T04:34:50.241Z,51.23
2018-08-19T04:37:20.821Z,61.53
2018-08-19T04:39:50.681Z,65.20
2018-08-19T04:42:20.610Z,53.97
2018-08-19T04:44:50.542Z,61.47
2018-08-19T04:47:32.262Z,58.50
2018-08-19T04:50:03.174Z,47.93
2018-08-19T04:52:38.863Z,51.53
2018-08-19T04:55:22.370Z,54.20
2018-08-19T04:57:52.055Z,53.83
2018-08-19T05:00:22.022Z,53.70
2018-08-19T05:02:51.616Z,47.27
2018-08-19T05:05:21.375Z,47.93
2018-08-19T05:07:50.961Z,43.87
2018-08-19T05:10:20.885Z,42.23
2018-08-19T05:12:50.776Z,45.77
2018-08-19T05:15:20.641Z,52.73
2018-08-19T05:17:50.236Z,44.33
2018-08-19T05:20:20.478Z,44.25
2018-08-19T05:22:50.158Z,25.97
2018-08-19T05:25:20.161Z,20.43
2018-08-19T05:27:57.837Z,16.82
2018-08-19T05:30:27.957Z,15.75
2018-08-19T05:33:02.037Z,13.85
2018-08-19T05:35:33.545Z,13.30
2018-08-19T05:38:04.197Z,13.22
2018-08-19T05:40:33.837Z,11.68
2018-08-19T05:43:03.561Z,11.57
2018-08-19T05:45:34.757Z,10.28
2018-08-19T05:48:12.878Z,10.30
2018-08-19T05:50:42.677Z,11.00
2018-08-19T05:53:12.258Z,11.12
2018-08-19T05:55:42.230Z,9.80
2018-08-19T05:58:11.960Z,9.95
2018-08-19T06:00:46.898Z,10.65
2018-08-19T06:03:17.399Z,11.05
2018-08-19T06:05:48.133Z,10.93
2018-08-19T06:08:18.119Z,9.88
2018-08-19T06:10:47.985Z,9.33
2018-08-19T06:13:17.717Z,8.45
2018-08-19T06:15:47.643Z,8.80
2018-08-19T06:18:17.485Z,9.85
2018-08-19T06:20:48.718Z,8.55
2018-08-19T06:23:18.659Z,8.45
2018-08-19T06:25:49.565Z,8.03
2018-08-19T06:28:19.309Z,7.90
2018-08-19T06:30:49.137Z,7.17
2018-08-19T06:33:20.998Z,7.67
2018-08-19T06:38:33.518Z,7.17
2018-08-19T06:41:03.778Z,7.78
2018-08-19T06:43:34.099Z,7.97
2018-08-19T06:46:04.946Z,7.65
2018-08-19T06:48:35.732Z,7.33
2018-08-19T06:51:08.512Z,7.50
2018-08-19T06:53:38.807Z,7.30
2018-08-19T06:56:09.746Z,8.05
2018-08-19T06:58:40.425Z,7.22
2018-08-19T07:01:11.904Z,7.50
2018-08-19T07:03:46.791Z,6.50
2018-08-19T07:06:18.779Z,7.40
2018-08-19T07:08:49.178Z,6.60
2018-08-19T07:11:19.082Z,6.22
2018-08-19T07:13:51.045Z,6.85
2018-08-19T07:16:22.234Z,7.47
2018-08-19T07:18:52.217Z,6.20
2018-08-19T07:21:24.524Z,6.78
2018-08-19T07:23:56.175Z,6.90
2018-08-19T07:26:27.098Z,6.25
2018-08-19T07:28:57.479Z,5.78
2018-08-19T07:31:29.220Z,5.87
2018-08-19T07:34:03.499Z,5.53
2018-08-19T07:36:36.918Z,5.45
2018-08-19T07:39:08.420Z,5.75
2018-08-19T07:41:39.080Z,5.53
2018-08-19T07:44:09.160Z,5.92
2018-08-19T07:46:50.473Z,6.33
2018-08-19T07:49:23.219Z,5.25
2018-08-19T07:51:53.840Z,4.97
2018-08-19T07:54:23.757Z,5.62
2018-08-19T07:56:54.538Z,5.65
2018-08-19T07:59:24.887Z,4.92
2018-08-19T08:01:55.672Z,5.97
2018-08-19T08:17:24.628Z,6.08
2018-08-19T08:20:08.719Z,5.22
2018-08-19T08:22:40.788Z,5.50
2018-08-19T08:25:14.580Z,4.75
2018-08-19T08:27:45.778Z,5.03
2018-08-19T08:30:17.917Z,4.90
2018-08-19T08:32:51.236Z,4.83
2018-08-19T08:35:23.719Z,5.17
2018-08-19T08:37:55.513Z,7.17
2018-08-19T08:40:27.326Z,5.42
2018-08-19T08:42:59.541Z,5.92
2018-08-19T08:45:35.279Z,5.25
2018-08-19T08:48:09.958Z,5.03
2018-08-19T08:50:42.580Z,5.35
2018-08-19T08:53:14.717Z,4.72
2018-08-19T08:58:40.569Z,6.78
2018-08-19T09:01:14.746Z,6.15
2018-08-19T09:03:54.866Z,5.30
2018-08-19T09:06:31.044Z,5.58
2018-08-19T09:09:03.467Z,5.25
2018-08-19T09:11:33.339Z,5.25
2018-08-19T09:14:03.300Z,5.28
2018-08-19T09:16:37.568Z,5.70
2018-08-19T09:19:08.919Z,5.83
2018-08-19T09:21:39.540Z,5.10
2018-08-19T09:24:09.850Z,5.20
2018-08-19T09:26:39.823Z,5.95
2018-08-19T09:29:09.460Z,5.30
2018-08-19T09:31:39.339Z,5.30
2018-08-19T09:34:09.940Z,5.95
2018-08-19T09:36:39.800Z,5.10
2018-08-19T09:39:11.580Z,5.22
2018-08-19T09:41:41.803Z,4.70
2018-08-19T09:44:11.640Z,4.53
2018-08-19T09:46:42.362Z,4.97
2018-08-19T09:49:14.407Z,8.48
2018-08-19T09:51:45.907Z,5.08
2018-08-19T09:54:20.890Z,5.33
2018-08-19T09:56:51.386Z,7.20
2018-08-19T09:59:21.619Z,5.50
2018-08-19T10:01:52.049Z,4.97
2018-08-19T10:04:26.389Z,5.70
2018-08-19T10:07:07.624Z,5.22
2018-08-19T10:09:38.679Z,5.60
2018-08-19T10:12:10.985Z,5.78
2018-08-19T10:14:41.498Z,5.33
2018-08-19T10:17:17.518Z,7.67
2018-08-19T10:19:50.779Z,6.10
2018-08-19T10:22:44.068Z,5.37
2018-08-19T10:25:17.119Z,5.37
2018-08-19T10:27:49.948Z,6.17
2018-08-19T10:30:20.618Z,6.00
2018-08-19T10:32:59.137Z,6.78
2018-08-19T10:35:30.599Z,6.30
2018-08-19T10:38:01.838Z,5.83
2018-08-19T10:40:35.078Z,5.92
2018-08-19T10:43:11.419Z,6.60
2018-08-19T10:45:46.345Z,6.08
2018-08-19T10:48:16.698Z,5.60
2018-08-19T10:50:46.507Z,5.70
2018-08-19T10:53:21.211Z,6.10
2018-08-19T10:55:50.979Z,6.78
2018-08-19T10:58:21.030Z,6.42
2018-08-19T11:00:52.698Z,5.92
2018-08-19T11:03:22.540Z,6.80
2018-08-19T11:05:54.585Z,6.25
2018-08-19T11:08:24.481Z,6.20
2018-08-19T11:10:54.040Z,6.42
2018-08-19T11:13:47.985Z,6.60
2018-08-19T11:16:34.269Z,6.15
2018-08-19T11:19:10.148Z,6.25
2018-08-19T11:21:51.046Z,5.40
2018-08-19T11:24:39.090Z,5.47
2018-08-19T11:27:10.717Z,5.83
2018-08-19T11:29:49.101Z,6.78
2018-08-19T11:32:38.100Z,6.33
2018-08-19T11:35:36.251Z,6.55
2018-08-19T11:38:11.529Z,5.75
2018-08-19T11:40:53.029Z,4.97
2018-08-19T11:43:43.269Z,5.60
2018-08-19T11:46:25.145Z,6.05
2018-08-19T11:49:01.405Z,6.00
2018-08-19T11:54:29.354Z,5.67
2018-08-19T11:57:05.013Z,5.15
2018-08-19T11:59:42.365Z,6.30
2018-08-19T12:02:24.809Z,6.22
2018-08-19T12:04:54.555Z,5.62
2018-08-19T12:07:24.657Z,5.95
2018-08-19T12:09:59.872Z,5.85
2018-08-19T12:13:00.445Z,5.87
2018-08-19T12:15:30.660Z,6.33
2018-08-19T12:18:00.596Z,5.45
2018-08-19T12:20:34.368Z,5.42
2018-08-19T12:23:05.686Z,5.55
2018-08-19T12:25:36.065Z,5.75
2018-08-19T12:28:06.349Z,5.53
2018-08-19T12:30:36.591Z,5.17
2018-08-19T12:33:20.684Z,5.40
2018-08-19T12:35:52.115Z,5.40
2018-08-19T12:38:22.112Z,5.28
2018-08-19T12:40:52.698Z,6.17
2018-08-19T12:43:22.688Z,4.72
2018-08-19T12:45:52.611Z,5.53
2018-08-19T12:48:22.609Z,5.05
2018-08-19T12:50:57.147Z,4.60
2018-08-19T12:53:27.292Z,5.00
2018-08-19T12:56:00.307Z,4.58
2018-08-19T12:58:38.908Z,3.98
2018-08-19T13:01:09.567Z,4.40
2018-08-19T13:03:39.407Z,4.70
2018-08-19T13:06:09.637Z,4.90
2018-08-19T13:08:39.488Z,4.65
2018-08-19T13:11:09.680Z,4.60
2018-08-19T13:13:39.888Z,4.15
2018-08-19T13:18:47.131Z,4.60
2018-08-19T13:21:19.322Z,4.30
2018-08-19T13:23:50.128Z,4.47
2018-08-19T13:26:20.367Z,4.72
2018-08-19T13:28:54.065Z,4.72
2018-08-19T13:31:28.501Z,4.15
2018-08-19T13:34:01.648Z,6.78
2018-08-19T13:36:43.506Z,6.05
2018-08-19T13:39:13.725Z,3.70
2018-08-19T13:41:43.964Z,4.78
2018-08-19T13:44:14.719Z,4.20
2018-08-19T13:46:46.186Z,5.58
2018-08-19T13:49:19.464Z,4.70
2018-08-19T13:51:50.614Z,4.53
2018-08-19T13:54:21.146Z,4.95
2018-08-19T13:56:50.996Z,5.78
2018-08-19T13:59:21.815Z,5.08
2018-08-19T14:01:54.622Z,4.20
2018-08-19T14:04:24.866Z,4.30
2018-08-19T14:06:55.150Z,4.25
2018-08-19T14:09:25.481Z,4.65
2018-08-19T14:11:55.878Z,4.20
2018-08-19T14:14:26.247Z,4.03
2018-08-19T14:16:56.538Z,3.75
2018-08-19T14:19:32.938Z,4.15
2018-08-19T14:22:02.976Z,4.20
2018-08-19T14:24:33.384Z,4.85
2018-08-19T14:27:03.038Z,4.60
2018-08-19T14:29:38.832Z,5.22
2018-08-19T14:32:15.533Z,4.08
2018-08-19T14:34:46.221Z,5.12
2018-08-19T14:37:41.748Z,4.33
2018-08-19T14:43:13.705Z,4.12
2018-08-19T14:45:43.527Z,5.10
2018-08-19T14:48:14.066Z,3.75
2018-08-19T14:50:47.867Z,4.67
2018-08-19T14:53:18.668Z,4.08
2018-08-19T14:55:49.516Z,4.15
2018-08-19T14:58:20.448Z,4.50
2018-08-19T15:00:50.817Z,5.22
2018-08-19T15:03:21.727Z,4.80
2018-08-19T15:06:07.948Z,4.62
2018-08-19T15:08:38.311Z,4.50
2018-08-19T15:11:08.508Z,4.50
2018-08-19T15:13:38.407Z,4.20
2018-08-19T15:16:08.708Z,4.72
2018-08-19T15:18:39.307Z,5.03
2018-08-19T15:21:09.469Z,5.75
2018-08-19T15:23:41.036Z,4.78
2018-08-19T15:26:11.629Z,4.80
2018-08-19T15:28:42.317Z,4.80
2018-08-19T15:31:17.138Z,4.42
2018-08-19T15:33:53.655Z,4.50
2018-08-19T15:36:23.814Z,4.70
2018-08-19T15:38:54.358Z,4.33
2018-08-19T15:41:24.890Z,6.30
2018-08-19T15:43:56.254Z,3.98
2018-08-19T15:46:26.409Z,6.20
2018-08-19T15:49:11.449Z,4.62
2018-08-19T15:51:41.656Z,4.25
2018-08-19T15:54:12.289Z,4.37
2018-08-19T15:56:49.068Z,4.10
2018-08-19T15:59:21.038Z,4.70
2018-08-19T16:01:51.448Z,4.20
2018-08-19T16:04:23.269Z,4.28
2018-08-19T16:06:54.288Z,4.47
2018-08-19T16:09:25.836Z,4.45
2018-08-19T16:11:55.928Z,4.50
2018-08-19T16:14:29.869Z,5.78
2018-08-19T16:17:00.890Z,4.55
2018-08-19T16:19:30.976Z,5.05
2018-08-19T16:22:01.389Z,4.10
2018-08-19T16:24:31.355Z,4.75
2018-08-19T16:27:01.055Z,5.78
2018-08-19T16:29:30.968Z,4.12
2018-08-19T16:32:00.698Z,6.08
2018-08-19T16:34:30.509Z,6.00
2018-08-19T16:37:00.156Z,4.97
2018-08-19T16:39:30.049Z,4.58
2018-08-19T16:41:59.795Z,4.25
2018-08-19T16:44:29.508Z,4.28
2018-08-19T16:46:59.287Z,5.75
2018-08-19T16:49:29.265Z,5.00
2018-08-19T16:51:58.938Z,7.60
2018-08-19T16:54:28.688Z,5.92
2018-08-19T16:56:58.380Z,5.45
2018-08-19T16:59:28.034Z,7.05
2018-08-19T17:01:57.592Z,6.30
2018-08-19T17:04:27.254Z,6.20
2018-08-19T17:06:56.827Z,6.78
2018-08-19T17:09:26.654Z,6.75
2018-08-19T17:11:56.494Z,6.67
2018-08-19T17:14:26.400Z,7.87
2018-08-19T17:16:56.320Z,6.28
2018-08-19T17:19:26.780Z,7.78
2018-08-19T17:21:57.358Z,7.42
2018-08-19T17:24:27.943Z,6.62
2018-08-19T17:27:04.378Z,8.05
2018-08-19T17:29:34.357Z,7.30
2018-08-19T17:32:04.299Z,8.73
2018-08-19T17:34:34.494Z,6.95
2018-08-19T17:37:04.938Z,7.85
2018-08-19T17:39:35.150Z,10.60
2018-08-19T17:42:05.304Z,9.20
2018-08-19T17:44:36.557Z,8.80
2018-08-19T17:47:06.410Z,11.22
2018-08-19T17:49:37.487Z,8.63
2018-08-19T17:52:07.332Z,9.58
2018-08-19T17:54:36.898Z,9.78
2018-08-19T17:57:07.919Z,9.63
2018-08-19T17:59:37.783Z,9.58
2018-08-19T18:02:07.567Z,9.93
2018-08-19T18:04:42.395Z,10.03
2018-08-19T18:07:14.162Z,11.20
2018-08-19T18:09:47.758Z,11.65
2018-08-19T18:12:17.618Z,14.00
2018-08-19T18:14:47.904Z,11.65
2018-08-19T18:17:17.774Z,11.22
2018-08-19T18:19:47.530Z,9.90
2018-08-19T18:22:22.154Z,12.23
2018-08-19T18:24:57.087Z,11.57
2018-08-19T18:27:27.137Z,11.40
2018-08-19T18:29:56.809Z,12.13
2018-08-19T18:32:26.698Z,14.23
2018-08-19T18:34:56.424Z,13.98
2018-08-19T18:37:26.142Z,11.70
2018-08-19T18:39:55.703Z,11.38
2018-08-19T18:42:38.082Z,11.88
2018-08-19T18:45:11.494Z,10.45
2018-08-19T18:48:14.936Z,11.75
2018-08-19T18:50:44.461Z,11.28
2018-08-19T18:53:14.262Z,10.55
2018-08-19T18:55:43.590Z,14.23
2018-08-19T18:58:13.107Z,13.00
2018-08-19T19:00:46.865Z,12.10
2018-08-19T19:03:16.447Z,13.13
2018-08-19T19:05:45.816Z,12.40
2018-08-19T19:08:19.020Z,11.57
2018-08-19T19:10:55.075Z,11.00
2018-08-19T19:13:25.512Z,11.53
2018-08-19T19:15:55.120Z,10.95
2018-08-19T19:18:25.030Z,10.25
2018-08-19T19:21:06.005Z,10.58
2018-08-19T19:23:36.780Z,10.85
2018-08-19T19:26:07.326Z,10.68
2018-08-19T19:28:37.089Z,10.82
2018-08-19T19:31:15.405Z,12.63
2018-08-19T19:33:45.113Z,11.20
2018-08-19T19:36:20.582Z,13.53
2018-08-19T19:38:58.663Z,12.47
2018-08-19T19:41:30.988Z,12.05
2018-08-19T19:44:04.874Z,12.82
2018-08-19T19:46:34.418Z,12.25
2018-08-19T19:49:04.044Z,14.03
2018-08-19T19:51:33.484Z,14.38
2018-08-19T19:54:02.914Z,13.05
2018-08-19T19:56:32.508Z,14.38
2018-08-19T19:59:02.068Z,14.45
2018-08-19T20:01:31.979Z,18.32
2018-08-19T20:04:02.090Z,16.00
2018-08-19T20:06:31.770Z,13.58
2018-08-19T20:09:01.532Z,14.83
2018-08-19T20:11:31.930Z,14.38
2018-08-19T20:14:03.280Z,13.88
2018-08-19T20:16:32.886Z,13.58
2018-08-19T20:19:02.642Z,12.98
2018-08-19T20:21:35.670Z,13.90
2018-08-19T20:24:05.815Z,13.78
2018-08-19T20:26:37.938Z,15.23
2018-08-19T20:29:11.332Z,14.75
2018-08-19T20:31:41.787Z,16.05
2018-08-19T20:34:12.220Z,16.17
2018-08-19T20:36:47.312Z,15.28
2018-08-19T20:39:19.456Z,14.38
2018-08-19T20:41:49.171Z,15.80
2018-08-19T20:44:22.434Z,14.85
2018-08-19T20:46:58.810Z,14.98
2018-08-19T20:49:29.824Z,14.18
2018-08-19T20:52:01.505Z,13.83
2018-08-19T20:54:33.593Z,14.13
2018-08-19T20:57:05.302Z,15.68
2018-08-19T20:59:36.488Z,14.38
2018-08-19T21:02:08.985Z,15.28
2018-08-19T21:04:38.805Z,14.38
2018-08-19T21:07:09.759Z,16.02
2018-08-19T21:09:41.885Z,15.68
2018-08-19T21:12:12.822Z,15.20
2018-08-19T21:14:43.731Z,15.90
2018-08-19T21:17:16.521Z,16.73
2018-08-19T21:19:48.680Z,15.85
2018-08-19T21:22:20.100Z,17.32
2018-08-19T21:24:51.375Z,16.42
2018-08-19T21:27:22.699Z,17.50
2018-08-19T21:29:53.556Z,16.82
2018-08-19T21:32:24.861Z,15.32
2018-08-19T21:34:56.249Z,16.02
2018-08-19T21:37:35.355Z,15.72
2018-08-19T21:40:06.083Z,18.35
2018-08-19T21:42:46.074Z,17.77
2018-08-19T21:45:15.589Z,15.25
2018-08-19T21:47:45.395Z,15.48
2018-08-19T21:50:14.828Z,15.05
2018-08-19T21:53:01.861Z,17.50
2018-08-19T21:55:33.689Z,16.30
2018-08-19T21:58:03.795Z,14.23
2018-08-19T22:00:36.263Z,15.30
2018-08-19T22:03:11.068Z,15.28
2018-08-19T22:05:40.750Z,14.28
2018-08-19T22:08:10.347Z,13.85
2018-08-19T22:10:40.021Z,13.90
2018-08-19T22:13:09.556Z,15.00
2018-08-19T22:15:40.410Z,14.85
2018-08-19T22:18:12.143Z,15.65
2018-08-19T22:20:47.464Z,15.38
2018-08-19T22:23:17.234Z,16.42
2018-08-19T22:25:46.831Z,16.82
2018-08-19T22:28:16.427Z,16.90
2018-08-19T22:30:46.062Z,19.42
2018-08-19T22:33:15.794Z,18.00
2018-08-19T22:35:45.381Z,18.95
2018-08-19T22:38:20.245Z,18.67
2018-08-19T22:40:50.351Z,18.85
2018-08-19T22:43:21.436Z,18.77
2018-08-19T22:45:50.931Z,18.30
2018-08-19T22:48:36.344Z,20.55
2018-08-19T22:51:06.657Z,19.10
2018-08-19T22:53:36.304Z,20.82
2018-08-19T22:56:06.100Z,20.60
2018-08-19T22:58:36.557Z,20.88
2018-08-19T23:01:06.535Z,22.27
2018-08-19T23:03:36.408Z,19.82
2018-08-19T23:06:06.159Z,21.65
2018-08-19T23:08:35.939Z,19.42
2018-08-19T23:11:05.955Z,19.87
2018-08-19T23:13:46.079Z,21.95
2018-08-19T23:16:15.628Z,21.42
2018-08-19T23:18:45.389Z,23.73
2018-08-19T23:21:14.997Z,24.90
2018-08-19T23:23:44.592Z,24.70
2018-08-19T23:26:14.043Z,23.38
2018-08-19T23:28:43.644Z,25.48
2018-08-19T23:31:13.203Z,24.60
2018-08-19T23:33:42.824Z,26.40
2018-08-19T23:36:12.263Z,29.37
2018-08-19T23:38:41.868Z,24.73
2018-08-19T23:41:11.350Z,28.27
2018-08-19T23:43:40.938Z,24.83
2018-08-19T23:46:10.397Z,34.97
2018-08-19T23:48:40.096Z,26.27
2018-08-19T23:51:12.716Z,36.00
2018-08-19T23:53:42.269Z,30.50
2018-08-19T23:56:11.743Z,33.17
2018-08-19T23:58:44.003Z,28.47
